sensor_id;sensor_type;location;lat;lon;timestamp;P1;durP1;ratioP1;P2;durP2;ratioP2
76433;SDS011;65265;53.200;6.080;2023-01-25T00:01:07;28.20;;;14.82;;
76433;SDS011;65265;53.200;6.080;2023-01-25T00:05:59;26.38;;;17.90;;
76433;SDS011;65265;53.200;6.080;2023-01-25T00:10:51;20.85;;;14.57;;
76433;SDS011;65265;53.200;6.080;2023-01-25T00:15:46;26.75;;;15.45;;
76433;SDS011;65265;53.200;6.080;2023-01-25T00:20:37;25.95;;;14.57;;
76433;SDS011;65265;53.200;6.080;2023-01-25T00:25:29;25.75;;;15.07;;
76433;SDS011;65265;53.200;6.080;2023-01-25T00:30:21;22.88;;;14.95;;
76433;SDS011;65265;53.200;6.080;2023-01-25T00:35:14;26.98;;;15.18;;
76433;SDS011;65265;53.200;6.080;2023-01-25T00:40:07;22.00;;;13.65;;
76433;SDS011;65265;53.200;6.080;2023-01-25T00:45:00;20.08;;;10.63;;
76433;SDS011;65265;53.200;6.080;2023-01-25T00:49:52;24.55;;;14.30;;
76433;SDS011;65265;53.200;6.080;2023-01-25T00:54:46;26.23;;;15.32;;
76433;SDS011;65265;53.200;6.080;2023-01-25T00:59:38;19.45;;;12.68;;
76433;SDS011;65265;53.200;6.080;2023-01-25T01:04:33;28.05;;;16.48;;
76433;SDS011;65265;53.200;6.080;2023-01-25T01:09:25;29.52;;;18.50;;
76433;SDS011;65265;53.200;6.080;2023-01-25T01:14:18;24.95;;;12.35;;
76433;SDS011;65265;53.200;6.080;2023-01-25T01:19:11;20.15;;;12.75;;
76433;SDS011;65265;53.200;6.080;2023-01-25T01:24:03;27.88;;;14.75;;
76433;SDS011;65265;53.200;6.080;2023-01-25T01:28:56;24.48;;;15.93;;
76433;SDS011;65265;53.200;6.080;2023-01-25T01:33:49;22.80;;;11.85;;
76433;SDS011;65265;53.200;6.080;2023-01-25T01:38:42;19.20;;;10.57;;
76433;SDS011;65265;53.200;6.080;2023-01-25T01:43:35;22.35;;;14.68;;
76433;SDS011;65265;53.200;6.080;2023-01-25T01:48:30;20.20;;;14.05;;
76433;SDS011;65265;53.200;6.080;2023-01-25T01:53:26;20.90;;;12.10;;
76433;SDS011;65265;53.200;6.080;2023-01-25T01:58:20;27.75;;;16.20;;
76433;SDS011;65265;53.200;6.080;2023-01-25T02:03:12;26.70;;;15.32;;
76433;SDS011;65265;53.200;6.080;2023-01-25T02:08:05;22.30;;;13.07;;
76433;SDS011;65265;53.200;6.080;2023-01-25T02:13:02;22.42;;;10.77;;
76433;SDS011;65265;53.200;6.080;2023-01-25T02:17:54;30.92;;;15.68;;
76433;SDS011;65265;53.200;6.080;2023-01-25T02:22:48;36.95;;;17.65;;
76433;SDS011;65265;53.200;6.080;2023-01-25T02:27:48;26.08;;;14.10;;
76433;SDS011;65265;53.200;6.080;2023-01-25T02:32:44;30.35;;;17.10;;
76433;SDS011;65265;53.200;6.080;2023-01-25T02:37:35;29.48;;;16.35;;
76433;SDS011;65265;53.200;6.080;2023-01-25T02:42:28;31.88;;;17.25;;
76433;SDS011;65265;53.200;6.080;2023-01-25T02:47:22;27.65;;;14.98;;
76433;SDS011;65265;53.200;6.080;2023-01-25T02:52:14;31.40;;;18.25;;
76433;SDS011;65265;53.200;6.080;2023-01-25T02:57:05;27.58;;;14.98;;
76433;SDS011;65265;53.200;6.080;2023-01-25T03:01:57;31.13;;;16.48;;
76433;SDS011;65265;53.200;6.080;2023-01-25T03:06:52;35.00;;;16.23;;
76433;SDS011;65265;53.200;6.080;2023-01-25T03:11:43;42.10;;;20.00;;
76433;SDS011;65265;53.200;6.080;2023-01-25T03:16:35;40.97;;;24.17;;
76433;SDS011;65265;53.200;6.080;2023-01-25T03:21:26;33.88;;;17.38;;
76433;SDS011;65265;53.200;6.080;2023-01-25T03:26:20;45.85;;;22.73;;
76433;SDS011;65265;53.200;6.080;2023-01-25T03:31:13;43.30;;;18.00;;
76433;SDS011;65265;53.200;6.080;2023-01-25T03:36:06;41.97;;;20.13;;
76433;SDS011;65265;53.200;6.080;2023-01-25T03:40:59;45.08;;;21.42;;
76433;SDS011;65265;53.200;6.080;2023-01-25T03:45:53;32.33;;;16.63;;
76433;SDS011;65265;53.200;6.080;2023-01-25T03:50:50;33.25;;;16.95;;
76433;SDS011;65265;53.200;6.080;2023-01-25T03:55:42;40.45;;;19.17;;
76433;SDS011;65265;53.200;6.080;2023-01-25T04:00:33;43.65;;;21.08;;
76433;SDS011;65265;53.200;6.080;2023-01-25T04:05:28;42.03;;;19.60;;
76433;SDS011;65265;53.200;6.080;2023-01-25T04:10:19;32.90;;;15.93;;
76433;SDS011;65265;53.200;6.080;2023-01-25T04:15:11;37.60;;;17.40;;
76433;SDS011;65265;53.200;6.080;2023-01-25T04:20:03;50.53;;;24.33;;
76433;SDS011;65265;53.200;6.080;2023-01-25T04:24:56;46.55;;;19.55;;
76433;SDS011;65265;53.200;6.080;2023-01-25T04:29:48;47.83;;;18.02;;
76433;SDS011;65265;53.200;6.080;2023-01-25T04:34:40;40.47;;;21.67;;
76433;SDS011;65265;53.200;6.080;2023-01-25T04:39:32;46.60;;;24.25;;
76433;SDS011;65265;53.200;6.080;2023-01-25T04:44:25;34.75;;;18.15;;
76433;SDS011;65265;53.200;6.080;2023-01-25T04:49:17;46.78;;;21.58;;
76433;SDS011;65265;53.200;6.080;2023-01-25T04:54:08;40.60;;;21.27;;
76433;SDS011;65265;53.200;6.080;2023-01-25T04:59:00;43.15;;;20.88;;
76433;SDS011;65265;53.200;6.080;2023-01-25T05:03:53;42.50;;;18.75;;
76433;SDS011;65265;53.200;6.080;2023-01-25T05:08:45;43.15;;;20.70;;
76433;SDS011;65265;53.200;6.080;2023-01-25T05:13:37;43.97;;;21.40;;
76433;SDS011;65265;53.200;6.080;2023-01-25T05:18:29;46.88;;;23.08;;
76433;SDS011;65265;53.200;6.080;2023-01-25T05:23:23;43.55;;;19.05;;
76433;SDS011;65265;53.200;6.080;2023-01-25T05:28:15;40.50;;;21.73;;
76433;SDS011;65265;53.200;6.080;2023-01-25T05:33:06;41.33;;;20.90;;
76433;SDS011;65265;53.200;6.080;2023-01-25T05:37:58;43.28;;;19.80;;
76433;SDS011;65265;53.200;6.080;2023-01-25T05:42:55;40.20;;;21.20;;
76433;SDS011;65265;53.200;6.080;2023-01-25T05:47:51;40.50;;;21.65;;
76433;SDS011;65265;53.200;6.080;2023-01-25T05:52:44;43.03;;;21.65;;
76433;SDS011;65265;53.200;6.080;2023-01-25T05:57:36;42.42;;;21.55;;
76433;SDS011;65265;53.200;6.080;2023-01-25T06:02:29;38.33;;;18.90;;
76433;SDS011;65265;53.200;6.080;2023-01-25T06:07:22;36.70;;;20.77;;
76433;SDS011;65265;53.200;6.080;2023-01-25T06:12:13;32.67;;;15.02;;
76433;SDS011;65265;53.200;6.080;2023-01-25T06:17:06;43.80;;;18.23;;
76433;SDS011;65265;53.200;6.080;2023-01-25T06:21:59;39.97;;;18.85;;
76433;SDS011;65265;53.200;6.080;2023-01-25T06:26:51;37.92;;;19.33;;
76433;SDS011;65265;53.200;6.080;2023-01-25T06:31:43;37.38;;;19.90;;
76433;SDS011;65265;53.200;6.080;2023-01-25T06:36:35;33.22;;;19.40;;
76433;SDS011;65265;53.200;6.080;2023-01-25T06:41:28;38.85;;;20.23;;
76433;SDS011;65265;53.200;6.080;2023-01-25T06:46:19;35.00;;;19.30;;
76433;SDS011;65265;53.200;6.080;2023-01-25T06:51:12;45.00;;;23.30;;
76433;SDS011;65265;53.200;6.080;2023-01-25T06:56:05;43.72;;;22.73;;
76433;SDS011;65265;53.200;6.080;2023-01-25T07:01:00;31.23;;;18.20;;
76433;SDS011;65265;53.200;6.080;2023-01-25T07:05:56;36.40;;;18.23;;
76433;SDS011;65265;53.200;6.080;2023-01-25T07:10:52;40.53;;;18.60;;
76433;SDS011;65265;53.200;6.080;2023-01-25T07:15:50;36.80;;;19.08;;
76433;SDS011;65265;53.200;6.080;2023-01-25T07:20:44;41.03;;;20.38;;
76433;SDS011;65265;53.200;6.080;2023-01-25T07:25:36;39.40;;;19.33;;
76433;SDS011;65265;53.200;6.080;2023-01-25T07:30:27;40.63;;;20.95;;
76433;SDS011;65265;53.200;6.080;2023-01-25T07:35:19;40.55;;;20.83;;
76433;SDS011;65265;53.200;6.080;2023-01-25T07:40:13;44.53;;;22.10;;
76433;SDS011;65265;53.200;6.080;2023-01-25T07:45:06;41.08;;;20.85;;
76433;SDS011;65265;53.200;6.080;2023-01-25T07:49:59;41.80;;;20.13;;
76433;SDS011;65265;53.200;6.080;2023-01-25T07:54:51;48.50;;;23.63;;
76433;SDS011;65265;53.200;6.080;2023-01-25T07:59:44;50.80;;;20.58;;
76433;SDS011;65265;53.200;6.080;2023-01-25T08:04:36;46.60;;;22.20;;
76433;SDS011;65265;53.200;6.080;2023-01-25T08:09:27;38.83;;;18.63;;
76433;SDS011;65265;53.200;6.080;2023-01-25T08:14:20;39.97;;;20.35;;
76433;SDS011;65265;53.200;6.080;2023-01-25T08:19:15;45.35;;;22.77;;
76433;SDS011;65265;53.200;6.080;2023-01-25T08:24:09;48.63;;;25.30;;
76433;SDS011;65265;53.200;6.080;2023-01-25T08:29:00;45.28;;;21.38;;
76433;SDS011;65265;53.200;6.080;2023-01-25T08:33:53;41.33;;;20.17;;
76433;SDS011;65265;53.200;6.080;2023-01-25T08:38:46;42.15;;;21.17;;
76433;SDS011;65265;53.200;6.080;2023-01-25T08:43:38;45.63;;;20.95;;
76433;SDS011;65265;53.200;6.080;2023-01-25T08:48:30;39.58;;;19.17;;
76433;SDS011;65265;53.200;6.080;2023-01-25T08:53:22;41.97;;;20.92;;
76433;SDS011;65265;53.200;6.080;2023-01-25T08:58:16;43.38;;;20.58;;
76433;SDS011;65265;53.200;6.080;2023-01-25T09:08:00;43.17;;;20.02;;
76433;SDS011;65265;53.200;6.080;2023-01-25T09:12:53;35.97;;;17.45;;
76433;SDS011;65265;53.200;6.080;2023-01-25T09:17:48;37.55;;;18.60;;
76433;SDS011;65265;53.200;6.080;2023-01-25T09:22:41;42.05;;;20.67;;
76433;SDS011;65265;53.200;6.080;2023-01-25T09:27:32;43.45;;;19.10;;
76433;SDS011;65265;53.200;6.080;2023-01-25T09:32:24;54.67;;;22.50;;
76433;SDS011;65265;53.200;6.080;2023-01-25T09:37:17;44.20;;;19.05;;
76433;SDS011;65265;53.200;6.080;2023-01-25T09:42:13;41.28;;;18.30;;
76433;SDS011;65265;53.200;6.080;2023-01-25T09:47:16;42.88;;;18.63;;
76433;SDS011;65265;53.200;6.080;2023-01-25T09:57:37;40.83;;;18.73;;
76433;SDS011;65265;53.200;6.080;2023-01-25T10:07:30;38.80;;;18.00;;
76433;SDS011;65265;53.200;6.080;2023-01-25T10:12:34;40.97;;;16.33;;
76433;SDS011;65265;53.200;6.080;2023-01-25T10:17:29;39.88;;;16.58;;
76433;SDS011;65265;53.200;6.080;2023-01-25T10:22:26;44.70;;;18.13;;
76433;SDS011;65265;53.200;6.080;2023-01-25T10:32:22;34.10;;;17.10;;
76433;SDS011;65265;53.200;6.080;2023-01-25T10:37:18;40.72;;;18.85;;
76433;SDS011;65265;53.200;6.080;2023-01-25T10:42:12;35.20;;;16.65;;
76433;SDS011;65265;53.200;6.080;2023-01-25T10:47:06;38.60;;;17.27;;
76433;SDS011;65265;53.200;6.080;2023-01-25T10:52:14;45.13;;;18.10;;
76433;SDS011;65265;53.200;6.080;2023-01-25T10:57:07;43.38;;;17.38;;
76433;SDS011;65265;53.200;6.080;2023-01-25T11:02:20;42.03;;;17.52;;
76433;SDS011;65265;53.200;6.080;2023-01-25T11:07:28;47.70;;;17.30;;
76433;SDS011;65265;53.200;6.080;2023-01-25T11:12:20;45.78;;;14.57;;
76433;SDS011;65265;53.200;6.080;2023-01-25T11:17:22;44.13;;;15.00;;
76433;SDS011;65265;53.200;6.080;2023-01-25T11:22:19;46.55;;;19.00;;
76433;SDS011;65265;53.200;6.080;2023-01-25T11:27:17;46.42;;;19.70;;
76433;SDS011;65265;53.200;6.080;2023-01-25T11:32:14;39.55;;;15.68;;
76433;SDS011;65265;53.200;6.080;2023-01-25T11:37:23;39.97;;;17.75;;
76433;SDS011;65265;53.200;6.080;2023-01-25T11:42:25;50.28;;;20.27;;
76433;SDS011;65265;53.200;6.080;2023-01-25T11:47:27;51.13;;;22.40;;
76433;SDS011;65265;53.200;6.080;2023-01-25T11:52:33;53.95;;;20.38;;
76433;SDS011;65265;53.200;6.080;2023-01-25T11:57:49;55.65;;;20.90;;
76433;SDS011;65265;53.200;6.080;2023-01-25T12:02:59;56.60;;;17.42;;
76433;SDS011;65265;53.200;6.080;2023-01-25T12:13:11;52.38;;;20.17;;
76433;SDS011;65265;53.200;6.080;2023-01-25T12:18:20;59.72;;;24.52;;
76433;SDS011;65265;53.200;6.080;2023-01-25T12:23:31;59.78;;;24.73;;
76433;SDS011;65265;53.200;6.080;2023-01-25T12:28:30;58.97;;;17.27;;
76433;SDS011;65265;53.200;6.080;2023-01-25T12:33:27;50.33;;;19.38;;
76433;SDS011;65265;53.200;6.080;2023-01-25T12:38:23;59.35;;;23.48;;
76433;SDS011;65265;53.200;6.080;2023-01-25T12:43:19;56.92;;;19.35;;
76433;SDS011;65265;53.200;6.080;2023-01-25T12:48:17;45.90;;;19.88;;
76433;SDS011;65265;53.200;6.080;2023-01-25T12:53:16;61.45;;;21.00;;
76433;SDS011;65265;53.200;6.080;2023-01-25T12:58:14;61.35;;;22.55;;
76433;SDS011;65265;53.200;6.080;2023-01-25T13:03:14;52.58;;;21.10;;
76433;SDS011;65265;53.200;6.080;2023-01-25T13:08:18;51.33;;;21.73;;
76433;SDS011;65265;53.200;6.080;2023-01-25T13:13:19;57.67;;;18.80;;
76433;SDS011;65265;53.200;6.080;2023-01-25T13:23:30;53.72;;;20.25;;
76433;SDS011;65265;53.200;6.080;2023-01-25T13:33:41;51.17;;;21.90;;
76433;SDS011;65265;53.200;6.080;2023-01-25T13:38:33;46.65;;;20.20;;
76433;SDS011;65265;53.200;6.080;2023-01-25T13:43:27;52.97;;;17.30;;
76433;SDS011;65265;53.200;6.080;2023-01-25T13:48:19;47.60;;;19.75;;
76433;SDS011;65265;53.200;6.080;2023-01-25T13:58:13;53.88;;;21.90;;
76433;SDS011;65265;53.200;6.080;2023-01-25T14:03:09;55.42;;;21.13;;
76433;SDS011;65265;53.200;6.080;2023-01-25T14:08:02;50.25;;;19.08;;
76433;SDS011;65265;53.200;6.080;2023-01-25T14:12:57;50.10;;;22.92;;
76433;SDS011;65265;53.200;6.080;2023-01-25T14:18:03;56.90;;;21.00;;
76433;SDS011;65265;53.200;6.080;2023-01-25T14:23:01;48.15;;;20.83;;
76433;SDS011;65265;53.200;6.080;2023-01-25T14:27:58;53.75;;;22.50;;
76433;SDS011;65265;53.200;6.080;2023-01-25T14:32:51;50.90;;;21.33;;
76433;SDS011;65265;53.200;6.080;2023-01-25T14:37:45;49.95;;;21.38;;
76433;SDS011;65265;53.200;6.080;2023-01-25T14:42:37;49.58;;;22.35;;
76433;SDS011;65265;53.200;6.080;2023-01-25T14:47:30;52.20;;;19.83;;
76433;SDS011;65265;53.200;6.080;2023-01-25T14:52:23;57.10;;;22.85;;
76433;SDS011;65265;53.200;6.080;2023-01-25T15:02:24;51.28;;;25.15;;
76433;SDS011;65265;53.200;6.080;2023-01-25T15:07:34;49.28;;;20.15;;
76433;SDS011;65265;53.200;6.080;2023-01-25T15:12:31;54.50;;;21.92;;
76433;SDS011;65265;53.200;6.080;2023-01-25T15:22:36;52.92;;;21.90;;
76433;SDS011;65265;53.200;6.080;2023-01-25T15:27:28;54.55;;;23.02;;
76433;SDS011;65265;53.200;6.080;2023-01-25T15:32:20;61.40;;;23.73;;
76433;SDS011;65265;53.200;6.080;2023-01-25T15:37:13;58.92;;;22.42;;
76433;SDS011;65265;53.200;6.080;2023-01-25T15:42:07;55.92;;;22.25;;
76433;SDS011;65265;53.200;6.080;2023-01-25T15:46:59;63.40;;;27.65;;
76433;SDS011;65265;53.200;6.080;2023-01-25T15:51:52;48.00;;;21.00;;
76433;SDS011;65265;53.200;6.080;2023-01-25T15:56:44;57.85;;;21.05;;
76433;SDS011;65265;53.200;6.080;2023-01-25T16:01:43;59.55;;;22.58;;
76433;SDS011;65265;53.200;6.080;2023-01-25T16:06:36;62.63;;;23.30;;
76433;SDS011;65265;53.200;6.080;2023-01-25T16:11:30;56.83;;;25.08;;
76433;SDS011;65265;53.200;6.080;2023-01-25T16:16:23;56.97;;;21.17;;
76433;SDS011;65265;53.200;6.080;2023-01-25T16:21:17;60.10;;;21.95;;
76433;SDS011;65265;53.200;6.080;2023-01-25T16:26:10;57.05;;;22.17;;
76433;SDS011;65265;53.200;6.080;2023-01-25T16:36:02;52.88;;;22.20;;
76433;SDS011;65265;53.200;6.080;2023-01-25T16:45:54;56.75;;;19.98;;
76433;SDS011;65265;53.200;6.080;2023-01-25T16:50:48;60.22;;;24.88;;
76433;SDS011;65265;53.200;6.080;2023-01-25T16:55:41;60.35;;;21.35;;
76433;SDS011;65265;53.200;6.080;2023-01-25T17:00:35;60.33;;;22.13;;
76433;SDS011;65265;53.200;6.080;2023-01-25T17:05:28;61.60;;;23.42;;
76433;SDS011;65265;53.200;6.080;2023-01-25T17:10:23;68.93;;;26.65;;
76433;SDS011;65265;53.200;6.080;2023-01-25T17:15:15;59.72;;;22.90;;
76433;SDS011;65265;53.200;6.080;2023-01-25T17:20:11;61.72;;;21.65;;
76433;SDS011;65265;53.200;6.080;2023-01-25T17:25:03;65.20;;;25.63;;
76433;SDS011;65265;53.200;6.080;2023-01-25T17:29:55;71.65;;;27.63;;
76433;SDS011;65265;53.200;6.080;2023-01-25T17:34:47;70.28;;;23.65;;
76433;SDS011;65265;53.200;6.080;2023-01-25T17:39:41;74.95;;;28.67;;
76433;SDS011;65265;53.200;6.080;2023-01-25T17:44:32;67.35;;;23.40;;
76433;SDS011;65265;53.200;6.080;2023-01-25T17:49:26;79.40;;;28.05;;
76433;SDS011;65265;53.200;6.080;2023-01-25T17:54:19;76.43;;;26.80;;
76433;SDS011;65265;53.200;6.080;2023-01-25T17:59:12;71.57;;;24.50;;
76433;SDS011;65265;53.200;6.080;2023-01-25T18:04:05;82.40;;;26.83;;
76433;SDS011;65265;53.200;6.080;2023-01-25T18:08:58;66.78;;;26.40;;
76433;SDS011;65265;53.200;6.080;2023-01-25T18:13:52;73.53;;;27.75;;
76433;SDS011;65265;53.200;6.080;2023-01-25T18:18:47;70.65;;;26.05;;
76433;SDS011;65265;53.200;6.080;2023-01-25T18:23:42;72.70;;;21.90;;
76433;SDS011;65265;53.200;6.080;2023-01-25T18:28:37;70.85;;;25.50;;
76433;SDS011;65265;53.200;6.080;2023-01-25T18:33:29;73.28;;;26.35;;
76433;SDS011;65265;53.200;6.080;2023-01-25T18:38:24;68.65;;;26.33;;
76433;SDS011;65265;53.200;6.080;2023-01-25T18:43:15;67.85;;;23.77;;
76433;SDS011;65265;53.200;6.080;2023-01-25T18:48:08;63.22;;;23.70;;
76433;SDS011;65265;53.200;6.080;2023-01-25T18:53:02;74.28;;;24.67;;
76433;SDS011;65265;53.200;6.080;2023-01-25T18:57:56;75.60;;;27.02;;
76433;SDS011;65265;53.200;6.080;2023-01-25T19:02:53;68.68;;;26.15;;
76433;SDS011;65265;53.200;6.080;2023-01-25T19:07:44;60.25;;;20.17;;
76433;SDS011;65265;53.200;6.080;2023-01-25T19:12:37;52.13;;;21.35;;
76433;SDS011;65265;53.200;6.080;2023-01-25T19:17:32;67.05;;;24.25;;
76433;SDS011;65265;53.200;6.080;2023-01-25T19:22:24;60.97;;;24.08;;
76433;SDS011;65265;53.200;6.080;2023-01-25T19:27:18;68.68;;;19.95;;
76433;SDS011;65265;53.200;6.080;2023-01-25T19:32:11;61.72;;;22.55;;
76433;SDS011;65265;53.200;6.080;2023-01-25T19:37:04;69.88;;;26.35;;
76433;SDS011;65265;53.200;6.080;2023-01-25T19:41:57;69.10;;;25.23;;
76433;SDS011;65265;53.200;6.080;2023-01-25T19:46:48;60.75;;;20.70;;
76433;SDS011;65265;53.200;6.080;2023-01-25T19:51:41;72.28;;;24.33;;
76433;SDS011;65265;53.200;6.080;2023-01-25T19:56:41;63.08;;;24.08;;
76433;SDS011;65265;53.200;6.080;2023-01-25T20:01:34;60.85;;;22.02;;
76433;SDS011;65265;53.200;6.080;2023-01-25T20:06:26;53.95;;;20.92;;
76433;SDS011;65265;53.200;6.080;2023-01-25T20:11:19;62.78;;;23.02;;
76433;SDS011;65265;53.200;6.080;2023-01-25T20:16:14;60.67;;;25.35;;
76433;SDS011;65265;53.200;6.080;2023-01-25T20:26:01;53.03;;;20.23;;
76433;SDS011;65265;53.200;6.080;2023-01-25T20:30:54;64.10;;;22.50;;
76433;SDS011;65265;53.200;6.080;2023-01-25T20:40:43;55.17;;;18.90;;
76433;SDS011;65265;53.200;6.080;2023-01-25T20:45:34;59.55;;;21.52;;
76433;SDS011;65265;53.200;6.080;2023-01-25T20:50:27;59.15;;;22.20;;
76433;SDS011;65265;53.200;6.080;2023-01-25T20:55:20;73.40;;;26.83;;
76433;SDS011;65265;53.200;6.080;2023-01-25T21:00:12;65.95;;;24.50;;
76433;SDS011;65265;53.200;6.080;2023-01-25T21:05:05;67.15;;;23.90;;
76433;SDS011;65265;53.200;6.080;2023-01-25T21:09:57;53.70;;;19.55;;
76433;SDS011;65265;53.200;6.080;2023-01-25T21:14:51;49.35;;;19.52;;
76433;SDS011;65265;53.200;6.080;2023-01-25T21:19:43;50.30;;;21.45;;
76433;SDS011;65265;53.200;6.080;2023-01-25T21:24:34;55.55;;;21.00;;
76433;SDS011;65265;53.200;6.080;2023-01-25T21:29:28;46.30;;;21.58;;
76433;SDS011;65265;53.200;6.080;2023-01-25T21:34:22;49.65;;;18.05;;
76433;SDS011;65265;53.200;6.080;2023-01-25T21:39:14;47.00;;;19.73;;
76433;SDS011;65265;53.200;6.080;2023-01-25T21:44:06;41.58;;;15.98;;
76433;SDS011;65265;53.200;6.080;2023-01-25T21:49:15;42.22;;;19.98;;
76433;SDS011;65265;53.200;6.080;2023-01-25T21:54:26;41.00;;;18.15;;
76433;SDS011;65265;53.200;6.080;2023-01-25T21:59:19;44.92;;;17.98;;
76433;SDS011;65265;53.200;6.080;2023-01-25T22:04:12;44.38;;;19.10;;
76433;SDS011;65265;53.200;6.080;2023-01-25T22:09:05;41.80;;;18.00;;
76433;SDS011;65265;53.200;6.080;2023-01-25T22:14:03;39.38;;;19.02;;
76433;SDS011;65265;53.200;6.080;2023-01-25T22:18:55;39.33;;;16.65;;
76433;SDS011;65265;53.200;6.080;2023-01-25T22:23:48;41.80;;;17.25;;
76433;SDS011;65265;53.200;6.080;2023-01-25T22:28:43;35.75;;;12.43;;
76433;SDS011;65265;53.200;6.080;2023-01-25T22:38:29;41.00;;;17.00;;
76433;SDS011;65265;53.200;6.080;2023-01-25T22:43:24;40.22;;;15.68;;
76433;SDS011;65265;53.200;6.080;2023-01-25T22:48:17;38.70;;;16.63;;
76433;SDS011;65265;53.200;6.080;2023-01-25T22:53:11;40.38;;;17.67;;
76433;SDS011;65265;53.200;6.080;2023-01-25T23:02:56;32.67;;;14.85;;
76433;SDS011;65265;53.200;6.080;2023-01-25T23:07:48;33.50;;;17.02;;
76433;SDS011;65265;53.200;6.080;2023-01-25T23:12:42;33.95;;;14.25;;
76433;SDS011;65265;53.200;6.080;2023-01-25T23:17:33;29.25;;;13.27;;
76433;SDS011;65265;53.200;6.080;2023-01-25T23:22:43;33.42;;;14.75;;
76433;SDS011;65265;53.200;6.080;2023-01-25T23:27:39;38.63;;;17.45;;
76433;SDS011;65265;53.200;6.080;2023-01-25T23:32:46;32.50;;;13.88;;
76433;SDS011;65265;53.200;6.080;2023-01-25T23:37:39;36.35;;;14.80;;
76433;SDS011;65265;53.200;6.080;2023-01-25T23:42:46;32.40;;;15.32;;
76433;SDS011;65265;53.200;6.080;2023-01-25T23:47:38;35.85;;;15.75;;
76433;SDS011;65265;53.200;6.080;2023-01-25T23:52:32;39.95;;;15.07;;
